Etusivu
METAR-TAF:

METAR-TAF

Lentoasemat :

Iowa City Municipal Airport

Iowa City, Iowa, Yhdysvallat

Leveyspiiri: 41-37-58N, Pituuspiiri: 091-32-35W, korkeus merenpinnasta: 203 m

Tämänhetkinen sää

Tämä raportti tehtiin 49 minuuttia sitten, kello 11.52 UTC
Tuuli 23 kn lännestä puuskistuen 35 kn:hen
Lämpötila 6°C
Kosteus 75%
Ilmanpaine 1000 hPa
Näkyvyys: 16.1 km
Pilvistä 1900 ft:n korkeudessa

METAR: KIOW 291152Z AUTO 27023G35KT 10SM OVC019 06/02 A2953 RMK AO2 PK WND 27039/1142 SLP999 60001 70028 T00560022 10117 20050 51034 $

Aika: 07:41 (12:41 UTC)


TAF: puuttuu

Säähavainnot ja -ennusteet yli 4000 lentoasemalta (METAR- ja TAF-raportit).

Käytössä olevat sääasemat on merkitty karttaan keltaisilla ja punaisilla pisteillä.

Aseta hiiri pisteen päälle nähdäksesi sääaseman nimen.

Klikkaa sitten nähdäksesi säähavainnot ja -ennusteet.

Kartan vaihtaminen: klikkaa mustalla rastilla varustettuja vihreitä pisteitä, niin voit zoomata sisään; viivalla varustettua vihreää pistettä, niin voit zoomata ulos tai vihreitä nuolia, niin pääset viereisille kartoille.


METAR-TAF: